createdAt,value
2023-05-14T00:02:04.197Z,14.68
2023-05-14T00:04:31.008Z,14.35
2023-05-14T00:06:58.734Z,14.52
2023-05-14T00:09:25.543Z,15.82
2023-05-14T00:11:52.478Z,13.38
2023-05-14T00:14:19.534Z,13.93
2023-05-14T00:16:46.203Z,12.63
2023-05-14T00:19:12.843Z,13.25
2023-05-14T00:21:39.482Z,12.43
2023-05-14T00:24:06.280Z,12.35
2023-05-14T00:26:32.983Z,13.70
2023-05-14T00:28:59.672Z,13.50
2023-05-14T00:31:26.449Z,13.15
2023-05-14T00:33:53.156Z,13.25
2023-05-14T00:36:20.065Z,13.88
2023-05-14T00:38:46.818Z,12.80
2023-05-14T00:41:13.493Z,13.65
2023-05-14T00:43:40.493Z,13.50
2023-05-14T00:46:07.188Z,14.00
2023-05-14T00:48:34.238Z,12.70
2023-05-14T00:51:00.887Z,13.57
2023-05-14T00:53:27.530Z,14.95
2023-05-14T00:55:54.142Z,13.93
2023-05-14T00:58:20.849Z,14.50
2023-05-14T01:00:47.646Z,14.20
2023-05-14T01:03:14.485Z,12.98
2023-05-14T01:08:29.511Z,13.57
2023-05-14T01:11:17.897Z,14.05
2023-05-14T01:14:07.460Z,13.73
2023-05-14T01:16:34.841Z,14.27
2023-05-14T01:19:01.750Z,13.63
2023-05-14T01:21:35.232Z,12.63
2023-05-14T01:24:01.880Z,14.40
2023-05-14T01:26:30.451Z,13.73
2023-05-14T01:29:01.720Z,13.73
2023-05-14T01:31:29.546Z,12.88
2023-05-14T01:33:56.311Z,11.65
2023-05-14T01:36:23.026Z,13.95
2023-05-14T01:38:49.920Z,13.80
2023-05-14T01:41:16.657Z,13.25
2023-05-14T01:43:44.741Z,12.30
2023-05-14T01:46:11.446Z,13.35
2023-05-14T01:48:38.130Z,12.98
2023-05-14T01:51:04.839Z,13.50
2023-05-14T01:53:31.531Z,12.30
2023-05-14T01:55:58.216Z,13.63
2023-05-14T01:58:25.043Z,12.77
2023-05-14T02:00:51.703Z,12.80
2023-05-14T02:03:18.428Z,13.10
2023-05-14T02:05:45.489Z,14.85
2023-05-14T02:08:12.159Z,14.85
2023-05-14T02:10:38.846Z,14.20
2023-05-14T02:13:05.551Z,14.10
2023-05-14T02:15:32.137Z,13.98
2023-05-14T02:17:58.841Z,14.40
2023-05-14T02:20:25.730Z,14.70
2023-05-14T02:22:52.528Z,17.05
2023-05-14T02:25:19.327Z,15.80
2023-05-14T02:27:46.494Z,17.48
2023-05-14T02:30:13.231Z,16.90
2023-05-14T02:32:39.906Z,16.17
2023-05-14T02:35:07.112Z,16.08
2023-05-14T02:37:34.747Z,14.88
2023-05-14T02:40:01.745Z,16.15
2023-05-14T02:42:28.538Z,16.40
2023-05-14T02:44:55.314Z,16.50
2023-05-14T02:47:22.012Z,17.40
2023-05-14T02:49:48.772Z,17.48
2023-05-14T02:52:15.544Z,17.13
2023-05-14T02:54:42.369Z,15.63
2023-05-14T02:57:09.025Z,17.73
2023-05-14T02:59:36.145Z,16.50
2023-05-14T03:02:03.263Z,15.90
2023-05-14T03:04:30.336Z,15.63
2023-05-14T03:06:57.039Z,17.77
2023-05-14T03:09:23.783Z,16.02
2023-05-14T03:11:50.570Z,16.00
2023-05-14T03:14:17.172Z,15.88
2023-05-14T03:16:43.835Z,16.27
2023-05-14T03:19:10.879Z,16.30
2023-05-14T03:21:37.562Z,15.68
2023-05-14T03:24:04.422Z,15.25
2023-05-14T03:26:31.024Z,18.50
2023-05-14T03:28:57.711Z,15.70
2023-05-14T03:31:24.681Z,17.33
2023-05-14T03:33:51.511Z,18.20
2023-05-14T03:36:18.344Z,16.63
2023-05-14T03:38:44.997Z,16.52
2023-05-14T03:41:11.667Z,15.25
2023-05-14T03:43:38.348Z,18.05
2023-05-14T03:46:05.104Z,16.95
2023-05-14T03:48:31.895Z,15.50
2023-05-14T03:50:58.613Z,18.20
2023-05-14T03:53:25.474Z,18.33
2023-05-14T03:55:52.563Z,14.98
2023-05-14T03:58:19.388Z,16.83
2023-05-14T04:00:46.357Z,15.27
2023-05-14T04:03:13.157Z,17.35
2023-05-14T04:05:43.244Z,16.08
2023-05-14T04:08:15.790Z,17.40
2023-05-14T04:10:46.564Z,16.80
2023-05-14T04:13:13.296Z,17.17
2023-05-14T04:15:40.022Z,16.60
2023-05-14T04:18:06.763Z,16.23
2023-05-14T04:20:33.351Z,18.55
2023-05-14T04:23:00.161Z,17.85
2023-05-14T04:25:27.001Z,17.92
2023-05-14T04:27:53.838Z,16.35
2023-05-14T04:30:21.012Z,16.00
2023-05-14T04:32:47.893Z,17.42
2023-05-14T04:35:14.601Z,16.77
2023-05-14T04:37:41.492Z,19.35
2023-05-14T04:40:10.340Z,18.05
2023-05-14T04:42:37.393Z,16.83
2023-05-14T04:45:05.215Z,19.38
2023-05-14T04:47:32.380Z,18.83
2023-05-14T04:49:59.022Z,19.45
2023-05-14T04:52:25.926Z,18.55
2023-05-14T04:54:52.713Z,18.00
2023-05-14T04:57:19.554Z,20.15
2023-05-14T04:59:46.265Z,18.13
2023-05-14T05:02:12.910Z,17.08
2023-05-14T05:04:39.544Z,15.93
2023-05-14T05:07:06.293Z,16.92
2023-05-14T05:09:32.941Z,17.88
2023-05-14T05:12:01.405Z,16.73
2023-05-14T05:14:28.047Z,15.65
2023-05-14T05:16:54.766Z,17.52
2023-05-14T05:19:29.100Z,16.55
2023-05-14T05:22:02.864Z,17.48
2023-05-14T05:24:29.509Z,16.30
2023-05-14T05:26:56.703Z,17.40
2023-05-14T05:29:24.670Z,18.38
2023-05-14T05:31:51.441Z,16.88
2023-05-14T05:34:18.266Z,15.95
2023-05-14T05:36:44.971Z,16.58
2023-05-14T05:39:11.619Z,16.65
2023-05-14T05:41:38.334Z,17.42
2023-05-14T05:44:05.245Z,16.90
2023-05-14T05:46:31.843Z,17.75
2023-05-14T05:48:58.514Z,16.80
2023-05-14T05:51:25.185Z,18.67
2023-05-14T05:53:51.777Z,19.65
2023-05-14T05:56:18.469Z,17.80
2023-05-14T05:58:45.141Z,19.63
2023-05-14T06:01:11.813Z,16.80
2023-05-14T06:03:38.481Z,17.95
2023-05-14T06:06:05.428Z,19.45
2023-05-14T06:08:32.205Z,19.77
2023-05-14T06:10:59.317Z,17.50
2023-05-14T06:13:26.122Z,19.13
2023-05-14T06:15:52.912Z,17.90
2023-05-14T06:18:19.580Z,22.13
2023-05-14T06:20:46.237Z,17.80
2023-05-14T06:23:13.009Z,15.95
2023-05-14T06:25:39.857Z,18.83
2023-05-14T06:28:06.546Z,17.50
2023-05-14T06:30:36.442Z,17.02
2023-05-14T06:33:10.401Z,18.33
2023-05-14T06:35:37.485Z,16.77
2023-05-14T06:38:04.193Z,16.70
2023-05-14T06:40:31.004Z,16.35
2023-05-14T06:42:57.808Z,16.58
2023-05-14T06:45:24.505Z,16.23
2023-05-14T06:47:51.379Z,15.55
2023-05-14T06:50:18.214Z,16.95
2023-05-14T06:52:45.296Z,15.85
2023-05-14T06:55:11.950Z,15.77
2023-05-14T06:57:40.686Z,13.57
2023-05-14T07:00:08.533Z,15.00
2023-05-14T07:02:35.479Z,14.55
2023-05-14T07:05:28.661Z,14.75
2023-05-14T07:10:22.265Z,16.23
2023-05-14T07:12:49.253Z,15.68
2023-05-14T07:15:15.983Z,17.63
2023-05-14T07:17:45.541Z,15.45
2023-05-14T07:20:13.462Z,16.00
2023-05-14T07:22:40.185Z,14.35
2023-05-14T07:25:07.695Z,15.52
2023-05-14T07:27:34.490Z,15.20
2023-05-14T07:30:01.176Z,15.20
2023-05-14T07:32:27.850Z,15.25
2023-05-14T07:34:54.502Z,17.10
2023-05-14T07:37:24.124Z,16.95
2023-05-14T07:39:50.930Z,15.38
2023-05-14T07:42:31.835Z,15.93
2023-05-14T07:45:02.458Z,13.85
2023-05-14T07:47:29.436Z,13.30
2023-05-14T07:49:56.958Z,13.43
2023-05-14T07:52:24.074Z,14.68
2023-05-14T07:54:51.275Z,15.20
2023-05-14T07:57:18.702Z,14.80
2023-05-14T07:59:45.441Z,14.18
2023-05-14T08:02:12.927Z,13.63
2023-05-14T08:04:39.910Z,14.93
2023-05-14T08:07:08.281Z,14.55
2023-05-14T08:09:34.934Z,15.10
2023-05-14T08:12:01.641Z,12.57
2023-05-14T08:14:28.735Z,12.57
2023-05-14T08:16:55.374Z,13.05
2023-05-14T08:19:23.137Z,12.57
2023-05-14T08:21:49.997Z,13.68
2023-05-14T08:24:17.361Z,13.27
2023-05-14T08:26:44.057Z,14.32
2023-05-14T08:29:12.291Z,16.05
2023-05-14T08:31:40.315Z,13.82
2023-05-14T08:34:07.253Z,13.60
2023-05-14T08:36:36.890Z,13.40
2023-05-14T08:39:03.592Z,13.27
2023-05-14T08:41:30.410Z,13.25
2023-05-14T08:46:41.330Z,12.30
2023-05-14T08:49:43.362Z,14.32
2023-05-14T08:52:10.313Z,13.90
2023-05-14T08:54:36.990Z,13.90
2023-05-14T08:57:04.555Z,13.52
2023-05-14T08:59:31.300Z,15.13
2023-05-14T09:02:01.208Z,12.48
2023-05-14T09:04:27.927Z,13.23
2023-05-14T09:06:55.342Z,14.55
2023-05-14T09:09:22.655Z,14.00
2023-05-14T09:11:50.319Z,14.65
2023-05-14T09:14:17.175Z,13.35
2023-05-14T09:16:45.557Z,15.85
2023-05-14T09:19:13.262Z,13.43
2023-05-14T09:21:40.324Z,15.18
2023-05-14T09:24:07.443Z,13.98
2023-05-14T09:26:34.542Z,13.23
2023-05-14T09:29:02.780Z,12.30
2023-05-14T09:31:31.610Z,12.13
2023-05-14T09:33:58.838Z,12.82
2023-05-14T09:36:27.021Z,10.77
2023-05-14T09:38:56.515Z,11.82
2023-05-14T09:41:23.483Z,11.57
2023-05-14T09:43:51.555Z,11.35
2023-05-14T09:46:18.211Z,10.90
2023-05-14T09:48:45.960Z,10.98
2023-05-14T09:51:13.371Z,10.38
2023-05-14T09:53:41.370Z,10.77
2023-05-14T09:56:08.123Z,11.32
2023-05-14T09:58:34.743Z,11.48
2023-05-14T10:01:01.844Z,9.75
2023-05-14T10:03:29.950Z,10.68
2023-05-14T10:05:58.488Z,9.60
2023-05-14T10:08:26.849Z,9.07
2023-05-14T10:10:55.216Z,10.30
2023-05-14T10:13:24.246Z,9.45
2023-05-14T10:15:57.730Z,9.10
2023-05-14T10:18:24.634Z,9.90
2023-05-14T10:20:57.331Z,10.00
2023-05-14T10:25:50.646Z,9.63
2023-05-14T10:28:17.362Z,8.65
2023-05-14T10:30:45.746Z,9.95
2023-05-14T10:33:15.300Z,9.52
2023-05-14T10:36:02.668Z,10.93
2023-05-14T10:38:30.170Z,12.90
2023-05-14T10:41:00.980Z,15.93
2023-05-14T10:43:29.289Z,13.40
2023-05-14T10:45:56.142Z,11.10
2023-05-14T10:48:22.931Z,9.63
2023-05-14T10:50:52.785Z,9.90
2023-05-14T10:53:20.054Z,8.50
2023-05-14T10:55:47.202Z,10.05
2023-05-14T10:58:13.955Z,9.27
2023-05-14T11:00:40.929Z,8.23
2023-05-14T11:03:07.907Z,8.57
2023-05-14T11:05:37.192Z,8.85
2023-05-14T11:08:06.331Z,8.23
2023-05-14T11:10:32.949Z,8.98
2023-05-14T11:13:00.187Z,8.90
2023-05-14T11:15:28.247Z,8.63
2023-05-14T11:17:55.174Z,8.20
2023-05-14T11:20:22.077Z,8.50
2023-05-14T11:22:50.373Z,9.60
2023-05-14T11:25:18.396Z,8.68
2023-05-14T11:27:45.896Z,9.00
2023-05-14T13:12:52.530Z,5.82
2023-05-14T13:15:19.360Z,5.50
2023-05-14T13:17:46.093Z,5.68
2023-05-14T13:20:12.899Z,5.40
2023-05-14T13:22:39.629Z,5.78
2023-05-14T13:25:07.005Z,4.97
2023-05-14T13:27:35.696Z,4.50
2023-05-14T13:30:02.950Z,4.90
2023-05-14T13:32:29.939Z,3.92
2023-05-14T13:34:56.710Z,4.47
2023-05-14T13:37:24.658Z,4.10
2023-05-14T13:39:51.608Z,4.18
2023-05-14T13:42:20.413Z,4.20
2023-05-14T13:44:47.069Z,3.67
2023-05-14T13:47:13.711Z,4.45
2023-05-14T13:49:40.731Z,3.80
2023-05-14T13:52:07.611Z,5.10
2023-05-14T13:54:34.296Z,3.85
2023-05-14T13:57:00.997Z,3.95
2023-05-14T13:59:27.947Z,4.25
2023-05-14T14:01:54.849Z,4.55
2023-05-14T14:04:22.148Z,4.88
2023-05-14T14:06:49.229Z,3.53
2023-05-14T14:09:15.913Z,4.22
2023-05-14T14:11:42.617Z,4.10
2023-05-14T14:14:09.405Z,4.97
2023-05-14T14:16:36.160Z,4.00
2023-05-14T14:19:03.030Z,3.33
2023-05-14T14:21:29.798Z,3.95
2023-05-14T14:23:56.548Z,3.10
2023-05-14T14:26:23.337Z,3.53
2023-05-14T14:28:50.032Z,3.70
2023-05-14T14:31:17.005Z,2.83
2023-05-14T14:33:43.700Z,3.17
2023-05-14T14:36:10.347Z,4.32
2023-05-14T14:38:37.405Z,3.92
2023-05-14T14:41:04.110Z,2.70
2023-05-14T14:43:31.594Z,3.30
2023-05-14T14:45:58.393Z,3.25
2023-05-14T14:48:27.179Z,3.80
2023-05-14T14:50:54.527Z,3.60
2023-05-14T14:53:21.725Z,3.30
2023-05-14T14:55:48.957Z,3.22
2023-05-14T14:58:15.599Z,3.00
2023-05-14T15:00:42.376Z,3.60
2023-05-14T15:03:10.521Z,3.88
2023-05-14T15:05:37.384Z,2.70
2023-05-14T15:08:04.610Z,2.67
2023-05-14T15:10:31.504Z,2.75
2023-05-14T15:12:58.898Z,2.55
2023-05-14T15:15:26.192Z,2.92
2023-05-14T15:17:52.902Z,3.60
2023-05-14T15:20:19.621Z,4.18
2023-05-14T15:22:46.234Z,3.90
2023-05-14T15:25:12.875Z,3.90
2023-05-14T15:27:39.508Z,12.30
2023-05-14T15:30:07.284Z,10.48
2023-05-14T15:32:34.086Z,5.10
2023-05-14T15:35:01.303Z,3.75
2023-05-14T15:37:27.954Z,3.95
2023-05-14T15:39:54.745Z,3.72
2023-05-14T15:42:21.531Z,4.00
2023-05-14T15:44:48.188Z,5.05
2023-05-14T15:47:14.874Z,5.00
2023-05-14T15:49:41.500Z,4.88
2023-05-14T15:52:08.185Z,9.98
2023-05-14T15:54:34.892Z,6.60
2023-05-14T15:57:01.596Z,7.13
2023-05-14T15:59:28.280Z,4.60
2023-05-14T16:01:55.073Z,3.67
2023-05-14T16:04:21.857Z,6.57
2023-05-14T16:06:48.489Z,3.75
2023-05-14T16:09:15.261Z,3.83
2023-05-14T16:11:42.114Z,4.47
2023-05-14T16:14:08.795Z,4.40
2023-05-14T16:16:36.744Z,4.95
2023-05-14T16:19:03.470Z,3.30
2023-05-14T16:21:30.350Z,4.40
2023-05-14T16:23:57.189Z,6.57
2023-05-14T16:26:23.859Z,5.68
2023-05-14T16:28:50.558Z,7.35
2023-05-14T16:31:17.432Z,7.07
2023-05-14T16:33:44.065Z,6.20
2023-05-14T16:36:11.009Z,8.38
2023-05-14T16:38:44.566Z,9.65
2023-05-14T16:41:19.432Z,9.80
2023-05-14T16:43:46.078Z,9.80
2023-05-14T16:46:12.819Z,6.05
2023-05-14T16:48:39.680Z,4.65
2023-05-14T16:51:06.529Z,3.63
2023-05-14T16:53:33.189Z,4.72
2023-05-14T16:55:59.810Z,5.00
2023-05-14T16:58:26.495Z,4.03
2023-05-14T17:00:53.106Z,7.10
2023-05-14T17:03:20.211Z,4.55
2023-05-14T17:05:46.902Z,4.93
2023-05-14T17:08:14.516Z,3.97
2023-05-14T17:10:41.211Z,4.47
2023-05-14T17:13:07.871Z,5.45
2023-05-14T17:15:35.283Z,5.85
2023-05-14T17:18:02.041Z,4.43
2023-05-14T17:20:29.066Z,5.13
2023-05-14T17:22:55.835Z,6.57
2023-05-14T17:25:24.152Z,4.38
2023-05-14T17:27:51.165Z,4.20
2023-05-14T17:30:17.860Z,4.07
2023-05-14T17:32:44.603Z,5.90
2023-05-14T17:35:11.640Z,11.30
2023-05-14T17:37:38.384Z,6.25
2023-05-14T17:40:05.724Z,8.35
2023-05-14T17:42:32.382Z,5.75
2023-05-14T17:44:59.055Z,4.57
2023-05-14T17:47:25.793Z,4.70
2023-05-14T17:49:52.907Z,3.60
2023-05-14T17:52:19.727Z,3.50
2023-05-14T17:54:46.429Z,4.80
2023-05-14T17:57:13.099Z,4.53
2023-05-14T17:59:39.742Z,4.07
2023-05-14T18:02:07.576Z,3.95
2023-05-14T18:04:34.230Z,3.20
2023-05-14T18:07:01.868Z,3.33
2023-05-14T18:09:28.517Z,3.55
2023-05-14T18:11:56.962Z,4.38
2023-05-14T18:14:23.858Z,4.65
2023-05-14T18:16:51.465Z,4.10
2023-05-14T18:19:18.385Z,5.18
2023-05-14T18:21:47.960Z,3.65
2023-05-14T18:24:14.777Z,3.00
2023-05-14T18:26:41.459Z,5.18
2023-05-14T18:29:08.387Z,4.25
2023-05-14T18:31:37.668Z,4.00
2023-05-14T18:34:04.709Z,3.72
2023-05-14T18:36:31.355Z,4.10
2023-05-14T18:38:58.124Z,4.35
2023-05-14T18:41:24.830Z,3.20
2023-05-14T18:43:51.674Z,4.03
2023-05-14T18:46:18.413Z,3.42
2023-05-14T18:48:45.362Z,3.35
2023-05-14T18:51:12.334Z,3.25
2023-05-14T18:53:39.512Z,3.60
2023-05-14T18:56:06.585Z,3.55
2023-05-14T18:58:33.174Z,3.80
2023-05-14T19:00:59.829Z,3.58
2023-05-14T19:03:26.561Z,3.83
2023-05-14T19:05:53.729Z,3.42
2023-05-14T19:08:20.422Z,2.97
2023-05-14T19:10:47.154Z,3.00
2023-05-14T19:13:15.856Z,4.50
2023-05-14T19:15:43.060Z,3.75
2023-05-14T19:18:12.868Z,3.30
2023-05-14T19:20:39.593Z,4.43
2023-05-14T19:23:06.311Z,5.05
2023-05-14T19:25:33.949Z,4.57
2023-05-14T19:28:02.238Z,4.43
2023-05-14T19:30:28.850Z,4.05
2023-05-14T19:32:55.673Z,4.10
2023-05-14T19:35:22.470Z,4.60
2023-05-14T19:37:49.310Z,4.07
2023-05-14T19:40:15.966Z,4.90
2023-05-14T19:42:42.677Z,5.47
2023-05-14T19:45:10.205Z,5.20
2023-05-14T19:47:36.889Z,5.72
2023-05-14T19:50:03.681Z,4.70
2023-05-14T19:52:30.493Z,5.25
2023-05-14T19:54:57.097Z,5.30
2023-05-14T19:57:23.795Z,5.80
2023-05-14T19:59:50.592Z,6.20
2023-05-14T20:02:18.332Z,5.05
2023-05-14T20:04:46.131Z,5.32
2023-05-14T20:07:15.325Z,5.15
2023-05-14T20:09:42.060Z,5.57
2023-05-14T20:12:09.232Z,5.13
2023-05-14T20:14:36.224Z,5.75
2023-05-14T20:17:02.897Z,5.97
2023-05-14T20:19:29.592Z,5.88
2023-05-14T20:21:56.615Z,6.15
2023-05-14T20:24:23.240Z,5.82
2023-05-14T20:26:49.982Z,6.13
2023-05-14T20:29:16.633Z,5.45
2023-05-14T20:31:43.298Z,7.88
2023-05-14T20:34:09.947Z,7.07
2023-05-14T20:36:37.372Z,7.65
2023-05-14T20:39:06.153Z,7.15
2023-05-14T20:41:32.855Z,7.57
2023-05-14T20:43:59.667Z,6.78
2023-05-14T20:46:26.386Z,8.05
2023-05-14T20:48:55.869Z,6.63
2023-05-14T20:51:22.658Z,6.68
2023-05-14T20:53:49.771Z,7.22
2023-05-14T20:56:16.596Z,6.25
2023-05-14T20:58:43.671Z,6.20
2023-05-14T21:01:10.639Z,6.22
2023-05-14T21:03:37.482Z,7.00
2023-05-14T21:06:04.392Z,5.65
2023-05-14T21:08:33.004Z,6.22
2023-05-14T21:10:59.689Z,6.30
2023-05-14T21:13:26.340Z,5.28
2023-05-14T21:15:53.057Z,6.30
2023-05-14T21:18:19.931Z,6.45
2023-05-14T21:20:46.599Z,5.35
2023-05-14T21:23:13.728Z,5.95
2023-05-14T21:25:40.519Z,7.13
2023-05-14T21:28:07.226Z,6.43
2023-05-14T21:30:34.306Z,6.10
2023-05-14T21:33:01.144Z,6.13
2023-05-14T21:35:27.868Z,5.88
2023-05-14T21:37:54.492Z,6.13
2023-05-14T21:40:21.327Z,6.88
2023-05-14T21:42:48.015Z,6.35
2023-05-14T21:45:14.749Z,6.55
2023-05-14T21:47:41.702Z,6.07
2023-05-14T21:50:08.921Z,6.43
2023-05-14T21:52:36.449Z,6.63
2023-05-14T21:55:03.302Z,6.72
2023-05-14T21:57:33.177Z,5.75
2023-05-14T22:00:01.111Z,6.90
2023-05-14T22:02:28.010Z,6.28
2023-05-14T22:04:54.685Z,7.05
2023-05-14T22:07:21.320Z,6.43
2023-05-14T22:09:48.225Z,6.63
2023-05-14T22:12:15.158Z,6.53
2023-05-14T22:14:41.824Z,6.75
2023-05-14T22:17:08.543Z,6.60
2023-05-14T22:19:35.437Z,6.03
2023-05-14T22:22:02.063Z,6.38
2023-05-14T22:24:28.736Z,5.78
2023-05-14T22:26:55.535Z,5.22
2023-05-14T22:29:22.171Z,5.15
2023-05-14T22:31:48.962Z,5.50
2023-05-14T22:34:16.082Z,5.28
2023-05-14T22:36:46.008Z,6.57
2023-05-14T22:39:13.552Z,6.00
2023-05-14T22:41:40.441Z,5.80
2023-05-14T22:44:07.039Z,5.72
2023-05-14T22:46:33.669Z,6.03
2023-05-14T22:49:00.381Z,5.93
2023-05-14T22:51:27.003Z,5.97
2023-05-14T22:53:54.088Z,5.30
2023-05-14T22:56:22.098Z,6.32
2023-05-14T22:58:48.830Z,6.13
2023-05-14T23:01:15.448Z,5.75
2023-05-14T23:03:42.175Z,6.85
2023-05-14T23:06:08.783Z,5.97
2023-05-14T23:08:35.565Z,7.47
2023-05-14T23:11:02.331Z,6.30
2023-05-14T23:13:29.000Z,7.88
2023-05-14T23:15:55.720Z,6.40
2023-05-14T23:18:24.052Z,6.18
2023-05-14T23:20:50.949Z,6.50
2023-05-14T23:23:17.749Z,6.35
2023-05-14T23:25:44.487Z,5.68
2023-05-14T23:28:11.143Z,6.40
2023-05-14T23:30:37.912Z,5.78
2023-05-14T23:33:04.667Z,5.93
2023-05-14T23:35:31.490Z,6.35
2023-05-14T23:37:58.121Z,5.40
2023-05-14T23:40:24.768Z,6.18
2023-05-14T23:42:51.485Z,4.95
2023-05-14T23:45:18.461Z,4.75
2023-05-14T23:47:45.316Z,5.32
2023-05-14T23:50:12.132Z,5.50
2023-05-14T23:52:38.745Z,5.05
2023-05-14T23:55:06.533Z,4.90
2023-05-14T23:57:33.301Z,5.00
